createdAt,value
2023-03-19T00:00:57.963Z,2.83
2023-03-19T00:03:26.520Z,1.53
2023-03-19T00:05:54.895Z,2.47
2023-03-19T00:08:23.215Z,1.60
2023-03-19T00:10:52.866Z,0.60
2023-03-19T00:13:21.373Z,1.30
2023-03-19T00:15:51.107Z,0.50
2023-03-19T00:18:19.461Z,0.93
2023-03-19T00:20:47.737Z,1.83
2023-03-19T00:23:16.287Z,0.90
2023-03-19T00:25:44.567Z,0.90
2023-03-19T00:28:14.373Z,0.80
2023-03-19T00:30:44.871Z,1.10
2023-03-19T00:33:13.304Z,0.83
2023-03-19T00:35:41.732Z,1.17
2023-03-19T00:38:10.045Z,0.93
2023-03-19T00:40:38.311Z,2.20
2023-03-19T00:43:07.411Z,1.30
2023-03-19T00:45:37.079Z,0.87
2023-03-19T00:48:05.620Z,0.80
2023-03-19T00:50:33.952Z,0.83
2023-03-19T00:53:02.476Z,1.07
2023-03-19T00:55:31.503Z,0.97
2023-03-19T00:57:59.940Z,0.83
2023-03-19T01:00:28.465Z,0.60
2023-03-19T01:02:58.150Z,1.80
2023-03-19T01:05:26.533Z,1.10
2023-03-19T01:07:54.839Z,1.97
2023-03-19T01:10:23.519Z,0.70
2023-03-19T01:12:51.942Z,0.87
2023-03-19T01:17:48.855Z,1.13
2023-03-19T01:20:19.120Z,0.93
2023-03-19T01:22:47.455Z,0.60
2023-03-19T01:25:15.829Z,2.40
2023-03-19T01:27:44.130Z,0.53
2023-03-19T01:30:13.044Z,1.30
2023-03-19T01:32:41.442Z,1.23
2023-03-19T01:35:11.512Z,1.80
2023-03-19T01:37:41.203Z,0.60
2023-03-19T01:40:10.443Z,1.43
2023-03-19T01:42:52.483Z,0.77
2023-03-19T01:45:33.514Z,0.67
2023-03-19T01:48:02.001Z,1.13
2023-03-19T01:50:31.486Z,1.10
2023-03-19T01:53:01.257Z,0.83
2023-03-19T01:55:30.889Z,1.77
2023-03-19T01:57:59.417Z,1.20
2023-03-19T02:00:28.367Z,0.60
2023-03-19T02:02:57.632Z,0.63
2023-03-19T02:05:26.602Z,0.60
2023-03-19T02:07:55.076Z,0.57
2023-03-19T02:10:24.896Z,0.90
2023-03-19T02:12:54.697Z,0.60
2023-03-19T02:15:22.994Z,0.50
2023-03-19T02:17:51.335Z,0.50
2023-03-19T02:20:20.371Z,0.50
2023-03-19T02:22:50.644Z,0.87
2023-03-19T02:25:21.384Z,2.50
2023-03-19T02:27:51.060Z,0.70
2023-03-19T02:30:21.782Z,0.50
2023-03-19T02:32:50.114Z,0.53
2023-03-19T02:35:18.536Z,0.50
2023-03-19T02:37:47.041Z,0.93
2023-03-19T02:40:15.651Z,0.60
2023-03-19T02:42:44.008Z,1.07
2023-03-19T02:45:13.738Z,0.77
2023-03-19T02:47:42.056Z,0.50
2023-03-19T02:50:13.161Z,0.50
2023-03-19T02:52:41.590Z,0.70
2023-03-19T02:55:11.408Z,0.80
2023-03-19T02:57:39.729Z,1.30
2023-03-19T03:00:09.106Z,1.40
2023-03-19T03:02:38.827Z,0.77
2023-03-19T03:05:07.513Z,1.33
2023-03-19T03:07:36.170Z,1.17
2023-03-19T03:10:04.598Z,1.80
2023-03-19T03:12:32.908Z,0.83
2023-03-19T03:15:01.238Z,1.63
2023-03-19T03:17:29.553Z,1.90
2023-03-19T03:19:59.250Z,1.23
2023-03-19T03:22:31.864Z,1.23
2023-03-19T03:25:00.264Z,1.30
2023-03-19T03:27:28.614Z,1.03
2023-03-19T03:29:57.166Z,3.93
2023-03-19T03:32:25.485Z,0.70
2023-03-19T03:34:55.765Z,0.90
2023-03-19T03:37:25.711Z,1.00
2023-03-19T03:39:54.437Z,1.57
2023-03-19T03:42:24.141Z,0.90
2023-03-19T03:44:52.478Z,1.20
2023-03-19T03:47:20.781Z,2.43
2023-03-19T03:49:49.116Z,1.20
2023-03-19T03:52:17.771Z,3.70
2023-03-19T03:54:47.640Z,0.97
2023-03-19T03:57:15.948Z,0.80
2023-03-19T03:59:44.280Z,0.70
2023-03-19T04:02:12.957Z,0.83
2023-03-19T04:04:41.780Z,1.40
2023-03-19T04:07:12.269Z,1.10
2023-03-19T04:09:40.567Z,1.83
2023-03-19T04:12:13.483Z,1.47
2023-03-19T04:14:44.814Z,1.43
2023-03-19T04:17:13.161Z,2.33
2023-03-19T04:19:43.362Z,2.97
2023-03-19T04:22:11.670Z,1.17
2023-03-19T04:24:39.985Z,2.33
2023-03-19T04:27:10.071Z,1.90
2023-03-19T04:29:38.376Z,1.63
2023-03-19T04:32:07.619Z,1.27
2023-03-19T04:34:36.189Z,1.50
2023-03-19T04:37:04.573Z,1.97
2023-03-19T04:39:33.516Z,1.77
2023-03-19T04:42:02.158Z,1.17
2023-03-19T04:44:32.404Z,1.43
2023-03-19T04:47:00.788Z,1.43
2023-03-19T04:49:29.408Z,1.10
2023-03-19T04:51:57.741Z,1.90
2023-03-19T04:54:26.094Z,1.47
2023-03-19T04:56:54.424Z,0.97
2023-03-19T04:59:23.313Z,1.23
2023-03-19T05:01:52.964Z,1.33
2023-03-19T05:04:21.271Z,2.40
2023-03-19T05:06:50.340Z,1.47
2023-03-19T05:09:18.614Z,1.00
2023-03-19T05:11:46.953Z,1.03
2023-03-19T05:14:15.238Z,1.70
2023-03-19T05:16:43.983Z,1.60
2023-03-19T05:19:13.702Z,1.90
2023-03-19T05:21:42.810Z,1.37
2023-03-19T05:24:11.358Z,1.63
2023-03-19T05:26:39.647Z,1.60
2023-03-19T05:29:10.767Z,2.87
2023-03-19T05:31:39.526Z,1.73
2023-03-19T05:34:07.822Z,1.63
2023-03-19T05:36:39.983Z,2.90
2023-03-19T05:39:08.282Z,1.67
2023-03-19T05:41:36.563Z,2.67
2023-03-19T05:44:05.002Z,1.77
2023-03-19T05:46:33.301Z,1.33
2023-03-19T05:49:01.754Z,0.77
2023-03-19T05:51:30.041Z,0.80
2023-03-19T05:53:59.721Z,1.00
2023-03-19T05:56:28.255Z,1.50
2023-03-19T05:58:56.754Z,1.03
2023-03-19T06:01:25.522Z,2.07
2023-03-19T06:03:54.037Z,0.77
2023-03-19T06:06:22.358Z,1.47
2023-03-19T06:08:50.904Z,0.80
2023-03-19T06:11:20.551Z,1.13
2023-03-19T06:13:48.894Z,0.70
2023-03-19T06:16:17.779Z,2.47
2023-03-19T06:18:47.193Z,1.00
2023-03-19T06:21:18.800Z,1.43
2023-03-19T06:23:47.079Z,1.83
2023-03-19T06:26:15.386Z,3.33
2023-03-19T06:28:45.032Z,1.60
2023-03-19T06:31:13.310Z,1.90
2023-03-19T06:33:41.689Z,1.30
2023-03-19T06:36:10.282Z,1.70
2023-03-19T06:38:38.557Z,1.93
2023-03-19T06:41:07.082Z,2.00
2023-03-19T06:43:37.192Z,2.27
2023-03-19T06:46:11.254Z,1.73
2023-03-19T06:48:39.887Z,1.03
2023-03-19T06:51:08.166Z,1.27
2023-03-19T06:53:36.452Z,1.83
2023-03-19T06:56:04.761Z,1.00
2023-03-19T06:58:34.448Z,3.23
2023-03-19T07:01:03.195Z,1.97
2023-03-19T07:03:32.861Z,1.03
2023-03-19T07:06:01.150Z,2.27
2023-03-19T07:08:30.263Z,2.00
2023-03-19T07:10:58.546Z,1.50
2023-03-19T07:13:27.274Z,1.00
2023-03-19T07:15:55.549Z,2.33
2023-03-19T07:18:23.928Z,1.13
2023-03-19T07:20:53.964Z,1.20
2023-03-19T07:23:22.652Z,1.50
2023-03-19T07:25:51.127Z,1.00
2023-03-19T07:28:19.410Z,1.13
2023-03-19T07:30:47.679Z,1.50
2023-03-19T07:33:16.768Z,1.63
2023-03-19T07:35:45.378Z,1.43
2023-03-19T07:38:15.768Z,4.87
2023-03-19T07:40:55.011Z,1.30
2023-03-19T07:43:29.769Z,1.63
2023-03-19T07:46:00.849Z,4.47
2023-03-19T07:48:29.728Z,2.23
2023-03-19T07:50:57.988Z,2.03
2023-03-19T07:53:27.721Z,1.57
2023-03-19T07:55:56.095Z,1.33
2023-03-19T07:58:24.657Z,2.30
2023-03-19T08:00:54.259Z,2.07
2023-03-19T08:03:22.570Z,1.30
2023-03-19T08:05:51.366Z,1.57
2023-03-19T08:08:19.691Z,2.50
2023-03-19T08:10:50.779Z,1.27
2023-03-19T08:13:19.947Z,1.80
2023-03-19T08:15:48.271Z,1.90
2023-03-19T08:18:16.829Z,1.97
2023-03-19T08:20:46.078Z,1.53
2023-03-19T08:23:14.408Z,7.93
2023-03-19T08:25:42.733Z,3.13
2023-03-19T08:28:14.845Z,2.60
2023-03-19T08:30:43.187Z,1.37
2023-03-19T08:33:11.612Z,1.57
2023-03-19T08:35:39.964Z,1.87
2023-03-19T08:38:08.432Z,2.20
2023-03-19T08:40:36.998Z,2.17
2023-03-19T08:43:05.390Z,1.23
2023-03-19T08:45:35.120Z,3.67
2023-03-19T08:48:04.075Z,1.87
2023-03-19T08:50:32.864Z,3.83
2023-03-19T08:53:01.408Z,2.43
2023-03-19T08:55:29.801Z,5.43
2023-03-19T08:57:58.081Z,2.63
2023-03-19T09:00:27.550Z,4.00
2023-03-19T09:02:57.192Z,2.37
2023-03-19T09:05:26.288Z,1.57
2023-03-19T09:07:55.440Z,1.87
2023-03-19T09:10:23.779Z,2.40
2023-03-19T09:12:52.062Z,2.20
2023-03-19T09:15:20.844Z,3.07
2023-03-19T09:17:49.174Z,1.80
2023-03-19T09:20:19.063Z,3.30
2023-03-19T09:22:47.442Z,3.07
2023-03-19T09:25:17.189Z,2.80
2023-03-19T09:27:45.625Z,1.63
2023-03-19T09:30:14.406Z,2.60
2023-03-19T09:32:42.747Z,3.37
2023-03-19T09:35:12.303Z,2.93
2023-03-19T09:37:42.057Z,5.17
2023-03-19T09:40:17.287Z,4.07
2023-03-19T09:42:47.504Z,3.23
2023-03-19T09:45:18.591Z,2.90
2023-03-19T09:47:46.892Z,3.13
2023-03-19T09:50:15.808Z,2.83
2023-03-19T09:52:47.077Z,3.93
2023-03-19T09:55:17.821Z,1.70
2023-03-19T09:57:56.421Z,3.10
2023-03-19T10:00:25.767Z,3.17
2023-03-19T10:02:56.208Z,2.13
2023-03-19T10:05:25.911Z,3.30
2023-03-19T10:08:14.806Z,4.93
2023-03-19T10:10:54.382Z,3.53
2023-03-19T10:13:28.617Z,2.67
2023-03-19T10:15:57.059Z,2.53
2023-03-19T10:18:26.228Z,2.73
2023-03-19T10:20:56.731Z,4.10
2023-03-19T10:23:33.656Z,5.80
2023-03-19T10:26:02.156Z,3.40
2023-03-19T10:28:30.757Z,2.23
2023-03-19T10:31:02.764Z,3.03
2023-03-19T10:33:34.773Z,2.90
2023-03-19T10:36:04.035Z,2.97
2023-03-19T10:38:34.329Z,3.57
2023-03-19T10:41:06.067Z,2.73
2023-03-19T10:43:35.148Z,2.77
2023-03-19T10:46:03.998Z,2.90
2023-03-19T10:48:38.138Z,4.23
2023-03-19T10:51:08.992Z,2.93
2023-03-19T10:53:38.923Z,3.30
2023-03-19T10:56:07.559Z,5.30
2023-03-19T10:58:36.345Z,2.83
2023-03-19T11:01:07.135Z,3.30
2023-03-19T11:03:36.673Z,2.83
2023-03-19T11:06:06.031Z,3.03
2023-03-19T11:08:36.509Z,2.13
2023-03-19T11:11:06.381Z,3.80
2023-03-19T11:13:35.690Z,1.93
2023-03-19T11:16:04.338Z,3.03
2023-03-19T11:18:34.396Z,3.97
2023-03-19T11:21:03.101Z,3.53
2023-03-19T11:23:31.683Z,3.13
2023-03-19T11:26:02.879Z,2.07
2023-03-19T11:28:35.408Z,4.17
2023-03-19T11:31:04.321Z,2.97
2023-03-19T11:33:50.550Z,3.70
2023-03-19T11:36:19.886Z,2.33
2023-03-19T11:39:05.124Z,2.73
2023-03-19T11:41:38.458Z,2.73
2023-03-19T11:44:08.721Z,1.17
2023-03-19T11:46:38.687Z,2.57
2023-03-19T11:49:15.595Z,3.40
2023-03-19T11:51:45.356Z,2.37
2023-03-19T11:54:15.474Z,1.30
2023-03-19T11:56:44.092Z,3.87
2023-03-19T11:59:19.913Z,3.53
2023-03-19T12:01:57.514Z,3.00
2023-03-19T12:04:35.729Z,1.87
2023-03-19T12:07:05.136Z,2.70
2023-03-19T12:09:36.194Z,1.80
2023-03-19T12:12:06.825Z,3.93
2023-03-19T12:14:42.305Z,1.70
2023-03-19T12:17:19.366Z,1.73
2023-03-19T12:19:51.162Z,2.27
2023-03-19T12:22:21.212Z,1.93
2023-03-19T12:24:59.260Z,1.20
2023-03-19T12:27:30.370Z,2.73
2023-03-19T12:30:03.238Z,1.43
2023-03-19T12:32:37.724Z,1.47
2023-03-19T12:35:08.230Z,1.73
2023-03-19T12:37:41.509Z,2.33
2023-03-19T12:40:20.327Z,2.77
2023-03-19T12:42:48.632Z,2.17
2023-03-19T12:45:25.530Z,3.70
2023-03-19T12:47:56.653Z,2.50
2023-03-19T12:50:25.455Z,1.10
2023-03-19T12:52:53.839Z,3.73
2023-03-19T12:55:26.786Z,2.23
2023-03-19T12:57:55.750Z,2.43
2023-03-19T13:00:28.088Z,1.50
2023-03-19T13:02:58.092Z,1.97
2023-03-19T13:05:28.688Z,1.97
2023-03-19T13:07:59.643Z,1.03
2023-03-19T13:10:27.971Z,2.33
2023-03-19T13:12:58.278Z,1.87
2023-03-19T13:15:29.674Z,2.07
2023-03-19T13:17:59.878Z,2.40
2023-03-19T13:20:30.409Z,2.97
2023-03-19T13:23:00.951Z,1.50
2023-03-19T13:25:30.017Z,3.23
2023-03-19T13:27:58.344Z,2.17
2023-03-19T13:30:27.135Z,1.33
2023-03-19T13:33:02.752Z,2.47
2023-03-19T13:35:37.136Z,3.07
2023-03-19T13:38:06.618Z,1.30
2023-03-19T13:40:42.418Z,1.77
2023-03-19T13:43:28.289Z,1.57
2023-03-19T13:46:04.599Z,2.10
2023-03-19T13:48:40.976Z,1.50
2023-03-19T13:51:25.253Z,3.53
2023-03-19T13:53:56.439Z,1.70
2023-03-19T13:56:30.379Z,1.00
2023-03-19T13:59:14.683Z,1.40
2023-03-19T14:01:45.577Z,3.80
2023-03-19T14:04:22.273Z,2.43
2023-03-19T14:06:52.786Z,2.67
2023-03-19T14:09:31.461Z,4.17
2023-03-19T14:12:10.456Z,1.57
2023-03-19T14:14:41.646Z,1.83
2023-03-19T14:17:14.768Z,2.00
2023-03-19T14:19:44.491Z,2.13
2023-03-19T14:22:19.926Z,2.40
2023-03-19T14:24:57.873Z,1.53
2023-03-19T14:27:29.478Z,3.03
2023-03-19T14:30:00.468Z,1.47
2023-03-19T14:32:30.371Z,1.93
2023-03-19T14:35:00.051Z,1.23
2023-03-19T14:37:29.255Z,1.50
2023-03-19T14:39:59.683Z,1.50
2023-03-19T14:42:31.004Z,3.47
2023-03-19T14:45:17.848Z,1.90
2023-03-19T14:47:51.702Z,3.40
2023-03-19T14:50:42.534Z,1.03
2023-03-19T14:53:14.733Z,0.73
2023-03-19T14:55:43.237Z,0.97
2023-03-19T14:58:12.378Z,3.80
2023-03-19T15:00:42.341Z,0.97
2023-03-19T15:03:22.020Z,1.30
2023-03-19T15:05:52.550Z,1.10
2023-03-19T15:08:22.696Z,0.83
2023-03-19T15:10:53.437Z,1.57
2023-03-19T15:13:25.142Z,2.00
2023-03-19T15:15:59.460Z,1.03
2023-03-19T15:18:28.243Z,1.53
2023-03-19T15:20:58.146Z,1.20
2023-03-19T15:23:28.886Z,1.47
2023-03-19T15:25:57.875Z,1.37
2023-03-19T15:28:26.482Z,3.90
2023-03-19T15:31:06.026Z,1.63
2023-03-19T15:33:43.904Z,2.60
2023-03-19T15:36:16.377Z,1.40
2023-03-19T15:38:45.614Z,1.00
2023-03-19T15:41:13.898Z,1.77
2023-03-19T15:43:42.242Z,2.20
2023-03-19T15:46:12.346Z,1.57
2023-03-19T15:48:42.010Z,1.17
2023-03-19T15:51:11.634Z,1.20
2023-03-19T15:53:41.297Z,1.63
2023-03-19T15:56:11.065Z,1.27
2023-03-19T15:58:40.115Z,1.23
2023-03-19T16:01:09.053Z,1.47
2023-03-19T16:03:38.844Z,2.83
2023-03-19T16:06:07.742Z,0.60
2023-03-19T16:08:36.230Z,1.10
2023-03-19T16:11:34.361Z,3.43
2023-03-19T16:14:04.189Z,2.90
2023-03-19T16:16:32.725Z,6.90
2023-03-19T16:19:01.254Z,1.47
2023-03-19T16:21:36.093Z,0.60
2023-03-19T16:24:04.813Z,6.03
2023-03-19T16:26:38.491Z,0.97
2023-03-19T16:29:09.501Z,1.50
2023-03-19T16:31:43.632Z,1.60
2023-03-19T16:34:41.114Z,3.53
2023-03-19T16:37:29.266Z,3.80
2023-03-19T16:39:57.716Z,0.83
2023-03-19T16:42:30.289Z,3.20
2023-03-19T16:45:00.172Z,196.43
2023-03-19T16:47:28.692Z,154.10
2023-03-19T16:49:57.125Z,71.03
2023-03-19T16:52:26.156Z,56.37
2023-03-19T16:54:54.443Z,47.53
2023-03-19T16:57:22.809Z,44.13
2023-03-19T16:59:51.821Z,32.80
2023-03-19T17:02:21.481Z,40.23
2023-03-19T17:04:50.876Z,29.43
2023-03-19T17:07:21.355Z,34.97
2023-03-19T17:09:51.513Z,22.40
2023-03-19T17:12:20.241Z,19.30
2023-03-19T17:14:48.758Z,18.30
2023-03-19T17:17:18.876Z,20.63
2023-03-19T17:19:48.570Z,16.33
2023-03-19T17:22:16.898Z,15.47
2023-03-19T17:24:45.456Z,7.23
2023-03-19T17:27:15.386Z,14.57
2023-03-19T17:29:43.688Z,7.90
2023-03-19T17:32:15.067Z,8.33
2023-03-19T17:34:43.390Z,4.97
2023-03-19T17:37:14.332Z,10.43
2023-03-19T17:39:43.344Z,7.90
2023-03-19T17:42:15.056Z,6.67
2023-03-19T17:44:43.346Z,4.93
2023-03-19T17:47:11.636Z,4.27
2023-03-19T17:49:41.074Z,4.43
2023-03-19T17:52:13.124Z,4.77
2023-03-19T17:54:41.953Z,4.57
2023-03-19T17:57:13.908Z,5.67
2023-03-19T17:59:42.591Z,4.67
2023-03-19T18:02:17.677Z,2.23
2023-03-19T18:04:46.123Z,4.57
2023-03-19T18:07:16.464Z,4.90
2023-03-19T18:09:44.734Z,2.37
2023-03-19T18:12:14.580Z,2.77
2023-03-19T18:14:42.889Z,3.07
2023-03-19T18:17:14.703Z,6.07
2023-03-19T18:19:43.139Z,4.07
2023-03-19T18:22:14.627Z,3.03
2023-03-19T18:24:44.326Z,2.27
2023-03-19T18:27:12.681Z,1.80
2023-03-19T18:29:40.968Z,3.03
2023-03-19T18:32:11.029Z,2.57
2023-03-19T18:34:39.348Z,5.57
2023-03-19T18:37:07.829Z,7.70
2023-03-19T18:39:38.252Z,3.40
2023-03-19T18:42:07.975Z,3.27
2023-03-19T18:44:36.305Z,4.27
2023-03-19T18:47:04.674Z,1.57
2023-03-19T18:49:32.982Z,2.63
2023-03-19T18:52:03.635Z,1.80
2023-03-19T18:54:32.308Z,2.10
2023-03-19T18:57:01.081Z,2.03
2023-03-19T18:59:32.601Z,1.10
2023-03-19T19:02:03.897Z,2.10
2023-03-19T19:04:32.275Z,3.93
2023-03-19T19:07:01.721Z,1.60
2023-03-19T19:09:30.026Z,2.07
2023-03-19T19:11:58.390Z,1.30
2023-03-19T19:14:27.062Z,1.87
2023-03-19T19:16:58.590Z,3.03
2023-03-19T19:19:27.645Z,0.80
2023-03-19T19:21:56.198Z,4.17
2023-03-19T19:24:24.586Z,1.63
2023-03-19T19:26:54.130Z,3.70
2023-03-19T19:29:23.812Z,3.23
2023-03-19T19:31:52.344Z,2.90
2023-03-19T19:34:21.997Z,0.60
2023-03-19T19:36:51.036Z,1.30
2023-03-19T19:39:19.486Z,3.30
2023-03-19T19:41:47.991Z,5.30
2023-03-19T19:44:19.026Z,1.40
2023-03-19T19:46:47.390Z,0.93
2023-03-19T19:49:15.865Z,2.10
2023-03-19T19:51:45.599Z,0.77
2023-03-19T19:54:13.979Z,2.57
2023-03-19T19:56:42.294Z,3.73
2023-03-19T19:59:14.914Z,0.63
2023-03-19T20:01:43.845Z,0.93
2023-03-19T20:04:15.072Z,2.00
2023-03-19T20:06:44.778Z,2.77
2023-03-19T20:09:13.149Z,1.77
2023-03-19T20:11:41.730Z,3.17
2023-03-19T20:14:10.485Z,1.07
2023-03-19T20:16:38.758Z,1.57
2023-03-19T20:19:07.356Z,0.73
2023-03-19T20:21:35.958Z,1.70
2023-03-19T20:24:05.774Z,1.10
2023-03-19T20:26:34.954Z,1.40
2023-03-19T20:29:03.852Z,1.40
2023-03-19T20:31:32.930Z,2.00
2023-03-19T20:34:01.617Z,0.90
2023-03-19T20:36:32.397Z,2.47
2023-03-19T20:39:00.694Z,1.20
2023-03-19T20:41:30.378Z,2.17
2023-03-19T20:43:58.902Z,1.03
2023-03-19T20:46:28.761Z,1.40
2023-03-19T20:48:57.097Z,0.90
2023-03-19T20:51:26.123Z,1.00
2023-03-19T20:53:54.436Z,3.90
2023-03-19T20:56:24.432Z,1.83
2023-03-19T20:58:54.640Z,1.63
2023-03-19T21:01:23.844Z,0.60
2023-03-19T21:03:53.292Z,1.43
2023-03-19T21:06:22.960Z,4.50
2023-03-19T21:08:53.349Z,1.73
2023-03-19T21:11:22.571Z,0.50
2023-03-19T21:13:51.952Z,0.63
2023-03-19T21:16:22.227Z,2.10
2023-03-19T21:18:51.831Z,1.50
2023-03-19T21:21:23.270Z,0.80
2023-03-19T21:23:52.822Z,3.13
2023-03-19T21:26:22.271Z,2.33
2023-03-19T21:28:50.894Z,1.27
2023-03-19T21:31:20.523Z,2.20
2023-03-19T21:33:50.595Z,2.07
2023-03-19T21:36:18.964Z,1.30
2023-03-19T21:38:47.592Z,2.27
2023-03-19T21:41:19.806Z,0.73
2023-03-19T21:43:48.956Z,0.90
2023-03-19T21:46:24.732Z,0.53
2023-03-19T21:48:54.777Z,0.53
2023-03-19T21:51:23.701Z,0.33
2023-03-19T21:53:52.425Z,0.43
2023-03-19T21:56:22.306Z,1.43
2023-03-19T21:58:50.699Z,0.93
2023-03-19T22:01:19.313Z,2.10
2023-03-19T22:03:47.717Z,0.57
2023-03-19T22:06:17.933Z,0.77
2023-03-19T22:08:48.226Z,0.87
2023-03-19T22:11:18.065Z,0.50
2023-03-19T22:13:46.424Z,1.13
2023-03-19T22:16:18.242Z,1.30
2023-03-19T22:18:46.617Z,0.67
2023-03-19T22:21:17.884Z,2.87
2023-03-19T22:23:46.448Z,0.63
2023-03-19T22:26:28.482Z,0.70
2023-03-19T22:28:57.966Z,1.40
2023-03-19T22:31:26.304Z,1.63
2023-03-19T22:33:54.726Z,0.70
2023-03-19T22:36:25.409Z,0.50
2023-03-19T22:38:53.722Z,0.60
2023-03-19T22:41:24.138Z,0.60
2023-03-19T22:43:52.414Z,1.03
2023-03-19T22:46:20.768Z,1.00
2023-03-19T22:48:50.025Z,0.83
2023-03-19T22:51:20.112Z,1.90
2023-03-19T22:53:49.816Z,0.57
2023-03-19T22:56:20.609Z,0.83
2023-03-19T22:58:50.717Z,0.53
2023-03-19T23:01:30.922Z,1.07
2023-03-19T23:03:59.352Z,3.33
2023-03-19T23:06:30.918Z,1.60
2023-03-19T23:09:01.453Z,1.03
2023-03-19T23:11:30.594Z,0.40
2023-03-19T23:13:59.659Z,0.67
2023-03-19T23:16:28.217Z,1.00
2023-03-19T23:18:57.141Z,0.33
2023-03-19T23:21:25.822Z,0.87
2023-03-19T23:23:54.688Z,0.60
2023-03-19T23:26:26.818Z,0.73
2023-03-19T23:28:55.169Z,0.70
2023-03-19T23:31:23.482Z,0.93
2023-03-19T23:33:52.150Z,0.50
2023-03-19T23:36:20.468Z,0.43
2023-03-19T23:38:49.207Z,0.40
2023-03-19T23:41:21.443Z,1.00
2023-03-19T23:43:52.152Z,1.40
2023-03-19T23:46:20.665Z,1.63
2023-03-19T23:48:49.408Z,1.13
2023-03-19T23:51:18.589Z,0.73
2023-03-19T23:53:46.969Z,1.70
2023-03-19T23:56:16.806Z,1.17
2023-03-19T23:58:45.123Z,0.73
